createdAt,value
2023-05-15T00:01:07.347Z,13.41
2023-05-15T00:04:09.668Z,13.35
2023-05-15T00:07:11.956Z,13.40
2023-05-15T00:10:14.415Z,13.43
2023-05-15T00:13:21.398Z,13.44
2023-05-15T00:16:24.169Z,13.57
2023-05-15T00:19:26.471Z,13.63
2023-05-15T00:22:28.969Z,13.48
2023-05-15T00:25:31.381Z,13.57
2023-05-15T00:28:33.751Z,13.58
2023-05-15T00:31:36.260Z,13.61
2023-05-15T00:34:38.585Z,13.68
2023-05-15T00:37:41.112Z,13.65
2023-05-15T00:40:44.205Z,13.66
2023-05-15T00:43:52.233Z,13.68
2023-05-15T00:46:55.392Z,13.66
2023-05-15T00:49:57.985Z,13.73
2023-05-15T00:53:01.877Z,13.68
2023-05-15T00:56:05.957Z,13.74
2023-05-15T00:59:08.564Z,13.71
2023-05-15T01:02:11.231Z,13.74
2023-05-15T01:05:14.782Z,13.75
2023-05-15T01:08:22.048Z,13.75
2023-05-15T01:11:36.359Z,13.73
2023-05-15T01:14:39.493Z,13.76
2023-05-15T01:17:42.186Z,13.68
2023-05-15T01:21:10.915Z,13.75
2023-05-15T01:24:34.544Z,13.90
2023-05-15T01:27:44.246Z,13.93
2023-05-15T01:30:48.696Z,13.92
2023-05-15T01:33:55.175Z,13.91
2023-05-15T01:36:58.306Z,13.83
2023-05-15T01:40:08.301Z,13.80
2023-05-15T01:43:13.002Z,13.82
2023-05-15T01:46:19.361Z,13.79
2023-05-15T01:49:28.061Z,13.78
2023-05-15T01:52:35.018Z,13.81
2023-05-15T01:55:39.589Z,13.66
2023-05-15T01:58:42.125Z,13.73
2023-05-15T02:01:45.756Z,13.76
2023-05-15T02:04:48.267Z,13.80
2023-05-15T02:07:50.853Z,13.85
2023-05-15T02:10:53.486Z,13.82
2023-05-15T02:13:57.956Z,13.75
2023-05-15T02:17:00.339Z,13.87
2023-05-15T02:20:03.410Z,13.73
2023-05-15T02:23:05.802Z,13.63
2023-05-15T02:26:17.068Z,13.72
2023-05-15T02:29:21.613Z,13.73
2023-05-15T02:32:49.564Z,13.78
2023-05-15T02:35:52.633Z,13.91
2023-05-15T02:38:56.133Z,13.87
2023-05-15T02:42:00.414Z,13.81
2023-05-15T02:45:03.894Z,13.91
2023-05-15T02:48:06.614Z,13.93
2023-05-15T02:51:09.414Z,13.92
2023-05-15T02:54:12.492Z,13.86
2023-05-15T02:57:14.856Z,13.93
2023-05-15T03:00:17.724Z,13.84
2023-05-15T03:03:19.991Z,13.71
2023-05-15T03:06:22.508Z,13.71
2023-05-15T03:09:25.633Z,13.66
2023-05-15T03:12:27.962Z,13.77
2023-05-15T03:15:30.449Z,13.60
2023-05-15T03:18:32.908Z,13.76
2023-05-15T03:21:35.344Z,13.81
2023-05-15T03:24:39.006Z,13.76
2023-05-15T03:27:41.333Z,13.75
2023-05-15T03:30:46.879Z,13.88
2023-05-15T03:33:50.785Z,13.84
2023-05-15T03:36:53.160Z,13.85
2023-05-15T03:39:55.696Z,13.80
2023-05-15T03:42:58.848Z,13.83
2023-05-15T03:46:01.401Z,13.57
2023-05-15T03:49:04.353Z,13.40
2023-05-15T03:52:09.594Z,13.69
2023-05-15T03:55:12.245Z,13.73
2023-05-15T03:58:15.442Z,13.78
2023-05-15T04:01:17.878Z,13.90
2023-05-15T04:04:20.145Z,13.95
2023-05-15T04:07:22.492Z,13.95
2023-05-15T04:10:24.963Z,13.98
2023-05-15T04:13:27.559Z,13.85
2023-05-15T04:16:30.048Z,13.82
2023-05-15T04:19:32.553Z,13.83
2023-05-15T04:22:34.854Z,13.93
2023-05-15T04:25:37.832Z,13.98
2023-05-15T04:28:41.536Z,13.74
2023-05-15T04:31:49.177Z,13.82
2023-05-15T04:34:51.508Z,13.89
2023-05-15T04:37:53.850Z,13.88
2023-05-15T04:40:56.385Z,14.01
2023-05-15T04:43:58.740Z,14.06
2023-05-15T04:47:01.212Z,14.12
2023-05-15T04:50:03.737Z,14.11
2023-05-15T04:53:06.632Z,14.28
2023-05-15T04:56:08.957Z,14.16
2023-05-15T04:59:11.338Z,14.28
2023-05-15T05:02:13.670Z,14.32
2023-05-15T05:05:16.641Z,14.42
2023-05-15T05:08:19.165Z,14.40
2023-05-15T05:11:21.853Z,14.48
2023-05-15T05:14:24.374Z,14.51
2023-05-15T05:17:26.944Z,14.62
2023-05-15T05:20:29.275Z,14.60
2023-05-15T05:23:32.158Z,14.65
2023-05-15T05:26:34.761Z,14.65
2023-05-15T05:29:37.925Z,14.57
2023-05-15T05:32:40.851Z,14.55
2023-05-15T05:35:43.567Z,14.54
2023-05-15T05:38:46.247Z,14.50
2023-05-15T05:41:48.720Z,14.43
2023-05-15T05:44:51.403Z,14.51
2023-05-15T05:47:54.045Z,14.49
2023-05-15T05:50:56.644Z,14.55
2023-05-15T05:53:58.987Z,14.61
2023-05-15T05:57:01.783Z,14.46
2023-05-15T06:00:14.381Z,14.45
2023-05-15T06:03:17.026Z,14.36
2023-05-15T06:06:19.691Z,14.39
2023-05-15T06:09:21.984Z,14.36
2023-05-15T06:12:24.583Z,14.56
2023-05-15T06:15:27.138Z,14.60
2023-05-15T06:18:29.761Z,14.67
2023-05-15T06:21:32.748Z,14.50
2023-05-15T06:24:35.097Z,14.57
2023-05-15T06:27:37.763Z,14.64
2023-05-15T06:30:40.179Z,14.85
2023-05-15T06:33:42.774Z,14.80
2023-05-15T06:36:45.224Z,14.97
2023-05-15T06:39:47.658Z,15.03
2023-05-15T06:42:50.035Z,15.26
2023-05-15T06:45:53.833Z,15.37
2023-05-15T06:48:56.328Z,15.30
2023-05-15T06:51:58.830Z,15.33
2023-05-15T06:55:01.466Z,15.47
2023-05-15T06:58:04.638Z,15.44
2023-05-15T07:01:08.367Z,15.67
2023-05-15T07:04:13.840Z,15.32
2023-05-15T07:07:16.215Z,15.59
2023-05-15T07:10:20.182Z,15.58
2023-05-15T07:13:22.592Z,15.38
2023-05-15T07:16:25.034Z,15.26
2023-05-15T07:19:27.542Z,15.28
2023-05-15T07:22:31.457Z,15.16
2023-05-15T07:25:35.074Z,15.08
2023-05-15T07:28:37.473Z,14.76
2023-05-15T07:31:40.734Z,14.68
2023-05-15T07:34:43.334Z,14.71
2023-05-15T07:37:46.993Z,14.81
2023-05-15T07:40:49.740Z,14.90
2023-05-15T07:43:52.367Z,14.88
2023-05-15T07:46:57.190Z,14.83
2023-05-15T07:50:00.081Z,14.65
2023-05-15T07:53:02.757Z,14.53
2023-05-15T07:56:05.696Z,14.21
2023-05-15T07:59:08.220Z,13.75
2023-05-15T08:02:10.928Z,13.48
2023-05-15T08:05:13.642Z,13.21
2023-05-15T08:08:16.070Z,12.90
2023-05-15T08:11:19.535Z,12.78
2023-05-15T08:14:22.390Z,12.52
2023-05-15T08:17:26.484Z,12.48
2023-05-15T08:20:29.092Z,12.32
2023-05-15T08:23:31.611Z,12.34
2023-05-15T08:26:34.294Z,12.44
2023-05-15T08:29:39.454Z,12.38
2023-05-15T08:32:46.019Z,12.25
2023-05-15T08:35:48.602Z,12.42
2023-05-15T08:38:51.007Z,12.36
2023-05-15T08:42:04.069Z,12.32
2023-05-15T08:45:08.742Z,12.21
2023-05-15T08:48:20.713Z,12.16
2023-05-15T08:51:24.624Z,12.07
2023-05-15T08:54:27.066Z,12.15
2023-05-15T08:57:29.585Z,12.19
2023-05-15T09:00:32.795Z,12.11
2023-05-15T09:03:35.350Z,12.12
2023-05-15T09:06:38.322Z,12.23
2023-05-15T09:09:41.981Z,12.20
2023-05-15T09:12:45.968Z,11.90
2023-05-15T09:15:48.474Z,11.36
2023-05-15T09:18:51.113Z,11.42
2023-05-15T09:21:53.678Z,11.22
2023-05-15T09:24:58.293Z,11.03
2023-05-15T09:28:01.377Z,11.23
2023-05-15T09:31:05.650Z,11.20
2023-05-15T09:34:09.723Z,11.25
2023-05-15T09:37:28.152Z,11.53
2023-05-15T09:40:31.611Z,11.69
2023-05-15T09:43:41.364Z,11.59
2023-05-15T09:46:43.823Z,11.49
2023-05-15T09:49:47.280Z,11.66
2023-05-15T09:52:50.662Z,11.61
2023-05-15T09:55:54.566Z,11.62
2023-05-15T09:58:59.147Z,11.82
2023-05-15T10:02:01.901Z,11.64
2023-05-15T10:05:05.054Z,11.53
2023-05-15T10:08:07.605Z,11.62
2023-05-15T10:11:10.078Z,11.60
2023-05-15T10:14:14.337Z,11.33
2023-05-15T10:17:16.628Z,11.20
2023-05-15T10:20:20.624Z,10.99
2023-05-15T10:23:23.107Z,11.08
2023-05-15T10:26:39.640Z,10.85
2023-05-15T10:29:42.329Z,10.93
2023-05-15T10:32:45.810Z,10.71
2023-05-15T10:35:49.253Z,10.89
2023-05-15T10:38:52.549Z,11.22
2023-05-15T10:41:55.363Z,11.18
2023-05-15T10:45:00.396Z,10.96
2023-05-15T10:48:03.666Z,11.03
2023-05-15T10:51:06.076Z,10.98
2023-05-15T10:54:10.827Z,11.27
2023-05-15T10:57:15.203Z,11.16
2023-05-15T11:00:23.599Z,11.43
2023-05-15T11:03:48.777Z,11.31
2023-05-15T11:07:12.481Z,11.46
2023-05-15T11:10:30.102Z,11.72
2023-05-15T11:14:20.573Z,11.71
2023-05-15T11:17:26.588Z,11.61
2023-05-15T11:20:37.091Z,11.66
2023-05-15T11:23:41.397Z,11.55
2023-05-15T11:26:43.755Z,11.64
2023-05-15T11:30:05.050Z,11.49
2023-05-15T11:33:11.518Z,11.41
2023-05-15T11:36:16.049Z,11.52
2023-05-15T11:39:18.515Z,11.58
2023-05-15T11:42:20.872Z,11.57
2023-05-15T11:45:23.365Z,11.58
2023-05-15T11:48:28.376Z,11.76
2023-05-15T11:51:30.911Z,11.70
2023-05-15T11:54:33.260Z,11.55
2023-05-15T11:57:35.657Z,11.47
2023-05-15T12:00:38.114Z,11.50
2023-05-15T12:03:40.596Z,11.72
2023-05-15T12:06:44.772Z,11.56
2023-05-15T12:09:52.712Z,11.61
2023-05-15T12:12:55.088Z,11.77
2023-05-15T12:15:57.943Z,11.54
2023-05-15T12:19:00.594Z,11.44
2023-05-15T12:22:06.523Z,11.40
2023-05-15T12:25:11.488Z,11.41
2023-05-15T12:28:14.653Z,11.51
2023-05-15T12:31:17.625Z,11.29
2023-05-15T12:34:21.009Z,11.40
2023-05-15T12:37:23.642Z,11.39
2023-05-15T12:40:26.721Z,11.22
2023-05-15T12:43:29.327Z,11.35
2023-05-15T12:46:32.806Z,11.39
2023-05-15T12:49:38.148Z,11.38
2023-05-15T12:52:41.345Z,11.39
2023-05-15T12:55:47.207Z,11.44
2023-05-15T12:58:49.624Z,11.41
2023-05-15T13:01:52.041Z,11.44
2023-05-15T13:04:54.467Z,11.18
2023-05-15T13:07:58.978Z,11.59
2023-05-15T13:11:01.423Z,11.67
2023-05-15T13:14:17.634Z,11.60
2023-05-15T13:17:22.541Z,11.67
2023-05-15T13:20:25.203Z,11.81
2023-05-15T13:23:27.801Z,11.65
2023-05-15T13:26:30.148Z,11.72
2023-05-15T13:29:32.405Z,11.77
2023-05-15T13:32:34.824Z,11.66
2023-05-15T13:35:37.774Z,11.52
2023-05-15T13:38:40.492Z,11.71
2023-05-15T13:41:43.259Z,11.71
2023-05-15T13:44:45.664Z,11.86
2023-05-15T13:47:48.084Z,11.83
2023-05-15T13:50:50.472Z,11.86
2023-05-15T13:53:52.979Z,11.94
2023-05-15T13:56:55.599Z,11.86
2023-05-15T13:59:57.953Z,11.92
2023-05-15T14:03:00.411Z,11.70
2023-05-15T14:06:02.877Z,11.72
2023-05-15T14:09:07.458Z,11.66
2023-05-15T14:12:10.186Z,11.84
2023-05-15T14:15:12.655Z,11.83
2023-05-15T14:18:15.116Z,11.80
2023-05-15T14:21:17.583Z,11.81
2023-05-15T14:24:19.918Z,11.94
2023-05-15T14:27:22.360Z,11.90
2023-05-15T14:30:24.919Z,11.76
2023-05-15T14:33:27.390Z,11.70
2023-05-15T14:36:30.409Z,11.80
2023-05-15T14:39:33.048Z,11.72
2023-05-15T14:42:35.705Z,11.94
2023-05-15T14:45:38.093Z,11.99
2023-05-15T14:48:40.628Z,11.90
2023-05-15T14:51:43.031Z,12.05
2023-05-15T14:54:51.221Z,11.97
2023-05-15T14:57:59.606Z,11.97
2023-05-15T15:01:02.038Z,11.79
2023-05-15T15:04:04.499Z,12.05
2023-05-15T15:07:11.599Z,12.06
2023-05-15T15:10:14.142Z,12.04
2023-05-15T15:13:17.152Z,12.00
2023-05-15T15:16:19.727Z,11.84
2023-05-15T15:19:22.348Z,11.94
2023-05-15T15:22:24.885Z,11.95
2023-05-15T15:25:27.468Z,11.97
2023-05-15T15:28:33.694Z,11.97
2023-05-15T15:31:36.254Z,12.00
2023-05-15T15:34:38.698Z,11.99
2023-05-15T15:37:41.048Z,11.98
2023-05-15T15:40:43.382Z,11.87
2023-05-15T15:43:45.830Z,12.03
2023-05-15T15:46:48.162Z,12.03
2023-05-15T15:49:54.152Z,12.04
2023-05-15T15:52:56.562Z,12.10
2023-05-15T15:55:58.942Z,12.26
2023-05-15T15:59:01.402Z,12.04
2023-05-15T16:02:06.026Z,12.08
2023-05-15T16:05:09.259Z,12.10
2023-05-15T16:08:11.620Z,12.11
2023-05-15T16:11:14.142Z,12.16
2023-05-15T16:14:16.644Z,12.34
2023-05-15T16:17:19.330Z,12.23
2023-05-15T16:20:21.999Z,12.24
2023-05-15T16:23:24.390Z,12.28
2023-05-15T16:26:26.864Z,12.22
2023-05-15T16:29:29.427Z,12.34
2023-05-15T16:32:32.014Z,12.33
2023-05-15T16:35:36.790Z,12.30
2023-05-15T16:38:39.234Z,12.14
2023-05-15T16:41:41.647Z,12.44
2023-05-15T16:44:44.195Z,12.49
2023-05-15T16:47:46.739Z,12.42
2023-05-15T16:50:51.270Z,12.57
2023-05-15T16:53:56.228Z,12.61
2023-05-15T16:56:58.729Z,12.49
2023-05-15T17:00:01.046Z,12.46
2023-05-15T17:03:04.463Z,12.44
2023-05-15T17:06:08.262Z,12.34
2023-05-15T17:09:10.774Z,12.21
2023-05-15T17:12:13.233Z,12.30
2023-05-15T17:15:15.616Z,12.29
2023-05-15T17:18:18.026Z,12.20
2023-05-15T17:21:20.414Z,12.20
2023-05-15T17:24:22.718Z,12.42
2023-05-15T17:27:25.158Z,12.34
2023-05-15T17:30:27.766Z,12.32
2023-05-15T17:33:30.262Z,12.34
2023-05-15T17:36:33.814Z,12.33
2023-05-15T17:39:36.460Z,12.29
2023-05-15T17:42:39.249Z,12.14
2023-05-15T17:45:41.817Z,12.32
2023-05-15T17:48:44.230Z,12.28
2023-05-15T17:51:46.639Z,12.16
2023-05-15T17:54:49.129Z,12.14
2023-05-15T17:57:51.651Z,12.29
2023-05-15T18:00:55.361Z,12.30
2023-05-15T18:03:57.757Z,12.21
2023-05-15T18:07:00.067Z,12.26
2023-05-15T18:10:02.443Z,12.27
2023-05-15T18:13:04.738Z,12.20
2023-05-15T18:16:07.706Z,12.18
2023-05-15T18:19:10.678Z,12.26
2023-05-15T18:22:13.201Z,12.30
2023-05-15T18:25:15.757Z,12.19
2023-05-15T18:28:18.236Z,12.26
2023-05-15T18:31:21.276Z,12.16
2023-05-15T18:34:24.230Z,12.19
2023-05-15T18:37:26.766Z,12.22
2023-05-15T18:40:29.334Z,12.31
2023-05-15T18:43:31.817Z,12.13
2023-05-15T18:46:34.444Z,12.20
2023-05-15T18:49:36.923Z,12.18
2023-05-15T18:52:39.216Z,12.15
2023-05-15T18:55:41.630Z,12.14
2023-05-15T18:58:45.956Z,12.11
2023-05-15T19:01:49.541Z,12.06
2023-05-15T19:04:51.970Z,12.03
2023-05-15T19:07:54.468Z,11.96
2023-05-15T19:11:00.648Z,11.95
2023-05-15T19:14:03.986Z,12.00
2023-05-15T19:17:06.617Z,11.99
2023-05-15T19:20:09.578Z,11.68
2023-05-15T19:23:12.943Z,12.03
2023-05-15T19:26:15.313Z,12.00
2023-05-15T19:29:17.791Z,12.11
2023-05-15T19:32:20.296Z,11.98
2023-05-15T19:35:22.901Z,11.98
2023-05-15T19:38:25.601Z,11.97
2023-05-15T19:41:28.021Z,12.18
2023-05-15T19:44:30.550Z,12.01
2023-05-15T19:47:33.083Z,12.25
2023-05-15T19:50:35.537Z,12.24
2023-05-15T19:53:37.901Z,12.15
2023-05-15T19:56:40.524Z,12.16
2023-05-15T19:59:43.003Z,12.12
2023-05-15T20:02:45.379Z,12.10
2023-05-15T20:05:47.859Z,12.04
2023-05-15T20:08:50.337Z,12.01
2023-05-15T20:11:52.931Z,12.06
2023-05-15T20:14:55.415Z,12.02
2023-05-15T20:17:58.472Z,12.01
2023-05-15T20:21:00.955Z,11.98
2023-05-15T20:24:03.425Z,12.03
2023-05-15T20:27:06.703Z,12.15
2023-05-15T20:30:09.638Z,12.05
2023-05-15T20:33:11.959Z,12.15
2023-05-15T20:36:16.766Z,12.13
2023-05-15T20:39:22.212Z,12.13
2023-05-15T20:42:25.537Z,12.18
2023-05-15T20:45:28.160Z,12.26
2023-05-15T20:48:30.585Z,12.10
2023-05-15T20:51:33.454Z,12.03
2023-05-15T20:54:36.069Z,12.03
2023-05-15T20:57:38.602Z,12.01
2023-05-15T21:00:40.978Z,11.96
2023-05-15T21:03:44.003Z,11.97
2023-05-15T21:06:46.795Z,11.88
2023-05-15T21:09:49.095Z,11.90
2023-05-15T21:12:51.671Z,11.85
2023-05-15T21:15:54.003Z,11.84
2023-05-15T21:18:56.499Z,11.95
2023-05-15T21:21:58.921Z,11.56
2023-05-15T21:25:01.264Z,11.99
2023-05-15T21:28:03.701Z,11.93
2023-05-15T21:31:07.448Z,11.86
2023-05-15T21:34:09.774Z,11.85
2023-05-15T21:37:12.375Z,11.86
2023-05-15T21:40:15.196Z,11.87
2023-05-15T21:43:17.626Z,11.91
2023-05-15T21:46:20.323Z,11.92
2023-05-15T21:49:22.674Z,11.87
2023-05-15T21:52:25.014Z,11.94
2023-05-15T21:55:27.512Z,11.79
2023-05-15T21:58:30.088Z,11.93
2023-05-15T22:01:32.668Z,11.90
2023-05-15T22:04:35.354Z,11.93
2023-05-15T22:07:37.931Z,11.97
2023-05-15T22:10:41.352Z,11.98
2023-05-15T22:13:43.839Z,11.95
2023-05-15T22:16:46.278Z,11.86
2023-05-15T22:19:48.878Z,11.92
2023-05-15T22:22:51.339Z,11.85
2023-05-15T22:25:54.316Z,11.79
2023-05-15T22:28:56.914Z,11.82
2023-05-15T22:31:59.353Z,11.88
2023-05-15T22:35:02.492Z,11.79
2023-05-15T22:38:07.128Z,11.74
2023-05-15T22:41:09.499Z,11.69
2023-05-15T22:44:12.150Z,11.77
2023-05-15T22:47:14.528Z,11.67
2023-05-15T22:50:16.869Z,11.71
2023-05-15T22:53:19.310Z,11.70
2023-05-15T22:56:21.806Z,11.96
2023-05-15T22:59:24.155Z,11.80
2023-05-15T23:02:27.208Z,11.68
2023-05-15T23:05:29.711Z,11.59
2023-05-15T23:08:32.711Z,11.54
2023-05-15T23:11:35.506Z,11.40
2023-05-15T23:14:37.943Z,11.40
2023-05-15T23:17:40.677Z,11.31
2023-05-15T23:20:43.218Z,11.27
2023-05-15T23:23:46.123Z,11.39
2023-05-15T23:26:48.544Z,11.41
2023-05-15T23:29:50.938Z,11.39
2023-05-15T23:32:55.307Z,11.31
2023-05-15T23:35:57.884Z,11.35
2023-05-15T23:39:00.316Z,11.35
2023-05-15T23:42:02.712Z,11.34
2023-05-15T23:45:05.672Z,11.36
2023-05-15T23:48:08.059Z,11.31
2023-05-15T23:51:11.061Z,11.27
2023-05-15T23:54:13.512Z,11.10
2023-05-15T23:57:15.829Z,11.09
